KFRR/FRR METAR and TAF weather

Enter ICAO airport designator
Station Type Date Time Source
KFRR METAR 2020/04/05 06:35 UTC NOAA

KFRR 050635Z AUTO 00000KT 10SM CLR 05/05 A3004 RMK AO1


Station Type Date Time Source
KFRR Decoded METAR 2020/04/05 06:35 UTC NOAA

Station name not available
Apr 05, 2020 - 02:35 AM EDT / 2020.04.05 0635 UTC
Wind: Calm:0
Visibility: 10 mile(s):0
Sky conditions: clear
Temperature: 41 F (5 C)
Dew Point: 41 F (5 C)
Relative Humidity: 100%
Pressure (altimeter): 30.04 in. Hg (1017 hPa)
ob: KFRR 050635Z AUTO 00000KT 10SM CLR 05/05 A3004 RMK AO1
cycle: 6

Station Type Date Time Source
KFRR TAF UTC NOAA

Error!

Example: see airport list